sensor_id;sensor_type;location;lat;lon;timestamp;P1;P2;P0
84648;PMS5003;74877;52.392;16.888;2023-12-14T00:00:10;34.84944145959985;31.44949595134621;8.49986377063411
84648;PMS5003;74877;52.392;16.888;2023-12-14T00:05:10;32.483136823780896;20.51566536238793;8.548193900994972
84648;PMS5003;74877;52.392;16.888;2023-12-14T00:10:10;56.829741188199655;44.95486989514301;13.571281477779022
84648;PMS5003;74877;52.392;16.888;2023-12-14T00:20:10;39.00934774463213;29.049514277917545;9.129847344488372
84648;PMS5003;74877;52.392;16.888;2023-12-14T00:25:10;27.82749993844315;21.279852894103588;4.910735283254674
84648;PMS5003;74877;52.392;16.888;2023-12-14T00:30:10;34.99046459395584;21.970756838065295;7.323585612688431
84648;PMS5003;74877;52.392;16.888;2023-12-14T00:35:10;37.5022327344667;37.5022327344667;8.967925219111603
84648;PMS5003;74877;52.392;16.888;2023-12-14T00:40:11;34.18392398783276;26.0448944669202;8.95293247300382
84648;PMS5003;74877;52.392;16.888;2023-12-14T00:45:10;53.75142119378389;25.246879651625765;7.329739253697803
84648;PMS5003;74877;52.392;16.888;2023-12-14T00:50:10;37.54889687813233;27.753532475141288;7.346523302243282
84648;PMS5003;74877;52.392;16.888;2023-12-14T00:55:11;23.076667023003765;18.955833626038807;7.417500114536924
84648;PMS5003;74877;52.392;16.888;2023-12-14T01:00:10;44.71015588805565;22.355077944027826;8.279658497788084
84648;PMS5003;74877;52.392;16.888;2023-12-14T01:05:10;41.808765631099156;24.593391547705384;7.378017464311616
84648;PMS5003;74877;52.392;16.888;2023-12-14T01:20:11;32.29676489090358;25.671787477384896;9.937466120278025
84648;PMS5003;74877;52.392;16.888;2023-12-14T01:25:10;37.35632083005978;23.243932960926085;10.791826017572824
84648;PMS5003;74877;52.392;16.888;2023-12-14T01:30:10;20.659849836119854;20.659849836119854;4.131969967223971
84648;PMS5003;74877;52.392;16.888;2023-12-14T01:35:10;30.749344228074385;21.607647295403623;3.324253430062096
84648;PMS5003;74877;52.392;16.888;2023-12-14T01:40:10;27.939318812396877;25.47408479953833;6.5739573676227945
84648;PMS5003;74877;52.392;16.888;2023-12-14T01:45:11;27.84442365893564;23.749655473798043;8.189536370275187
84648;PMS5003;74877;52.392;16.888;2023-12-14T01:50:10;26.784853427234975;21.914880076828616;4.058311125338633
84648;PMS5003;74877;52.392;16.888;2023-12-14T02:00:10;24.48335259350935;19.58668207480748;4.89667051870187
84648;PMS5003;74877;52.392;16.888;2023-12-14T02:05:10;19.67471323816431;19.67471323816431;4.918678309541077
84648;PMS5003;74877;52.392;16.888;2023-12-14T02:10:11;22.916764655188476;22.916764655188476;3.2738235221697827
84648;PMS5003;74877;52.392;16.888;2023-12-14T02:15:10;13.191788902985317;13.191788902985317;3.2979472257463294
84648;PMS5003;74877;52.392;16.888;2023-12-14T02:20:10;28.812082656549823;19.75685667877702;4.939214169694255
84648;PMS5003;74877;52.392;16.888;2023-12-14T02:25:11;17.236070916085776;17.236070916085776;4.924591690310221
84648;PMS5003;74877;52.392;16.888;2023-12-14T02:30:10;29.62366561041363;24.686388008678026;5.760157202024873
84648;PMS5003;74877;52.392;16.888;2023-12-14T02:35:10;17.618804058456128;14.26284138065496;4.194953347251459
84648;PMS5003;74877;52.392;16.888;2023-12-14T02:40:10;17.5034672346629;17.5034672346629;6.667987517966819
84648;PMS5003;74877;52.392;16.888;2023-12-14T02:45:10;25.93121180621565;20.91226758565778;5.855434923984179
84648;PMS5003;74877;52.392;16.888;2023-12-14T02:50:11;12.525024126320224;12.525024126320224;4.175008042106741
84648;PMS5003;74877;52.392;16.888;2023-12-14T02:55:10;16.820409879893184;13.456327903914547;3.3640819759786367
84648;PMS5003;74877;52.392;16.888;2023-12-14T03:00:10;21.67880554796212;18.343604694429484;4.169001066915792
84648;PMS5003;74877;52.392;16.888;2023-12-14T03:05:10;18.330314010917647;18.330314010917647;4.999176548432086
84648;PMS5003;74877;52.392;16.888;2023-12-14T03:15:11;22.652748075157877;22.652748075157877;3.355962677801167
84648;PMS5003;74877;52.392;16.888;2023-12-14T03:20:10;14.257875856701824;10.903081537477865;2.516095739417969
84648;PMS5003;74877;52.392;16.888;2023-12-14T03:25:10;16.72090871002819;16.72090871002819;5.016272613008457
84648;PMS5003;74877;52.392;16.888;2023-12-14T03:30:10;15.035409792919882;7.517704896459941;2.505901632153314
84648;PMS5003;74877;52.392;16.888;2023-12-14T03:35:10;29.313369726045032;15.075447287680301;2.512574547946717
84648;PMS5003;74877;52.392;16.888;2023-12-14T03:40:11;18.467411718871183;14.270272691855006;2.518283416209707
84648;PMS5003;74877;52.392;16.888;2023-12-14T03:45:10;11.656255253828038;11.656255253828038;4.162948304938585
84648;PMS5003;74877;52.392;16.888;2023-12-14T03:50:10;14.16175991650877;14.16175991650877;4.998268205826625
84648;PMS5003;74877;52.392;16.888;2023-12-14T04:00:10;15.816316117988942;15.816316117988942;2.497313071261412
84648;PMS5003;74877;52.392;16.888;2023-12-14T04:05:10;15.839338566803757;15.839338566803757;2.500948194758488
84648;PMS5003;74877;52.392;16.888;2023-12-14T04:10:10;15.088669946649816;15.088669946649816;5.029556648883272
84648;PMS5003;74877;52.392;16.888;2023-12-14T04:15:10;12.520531648114243;9.181723208617111;3.3388084394971314
84648;PMS5003;74877;52.392;16.888;2023-12-14T04:25:10;20.040038602112357;16.700032168426965;1.6700032168426966
84648;PMS5003;74877;52.392;16.888;2023-12-14T04:30:10;9.954266327879706;9.954266327879706;2.4885665819699265
84648;PMS5003;74877;52.392;16.888;2023-12-14T04:35:10;14.12285750329438;14.12285750329438;2.4922689711695964
84648;PMS5003;74877;52.392;16.888;2023-12-14T04:40:10;14.928610465478643;11.611141473150056;4.146836240410734
84648;PMS5003;74877;52.392;16.888;2023-12-14T04:45:11;12.369699383470856;12.369699383470856;0.8246466255647238
84648;PMS5003;74877;52.392;16.888;2023-12-14T04:50:10;22.22646376362415;13.171237785851348;3.292809446462837
84648;PMS5003;74877;52.392;16.888;2023-12-14T04:55:10;10.672076216489069;8.209289397299285;1.6418578794598568
84648;PMS5003;74877;52.392;16.888;2023-12-14T05:05:10;15.740252963892035;15.740252963892035;4.142171832603167
84648;PMS5003;74877;52.392;16.888;2023-12-14T05:10:10;8.281221766898353;8.281221766898353;2.484366530069506
84648;PMS5003;74877;52.392;16.888;2023-12-14T05:20:10;12.683487286043546;12.683487286043546;5.073394914417419
84648;PMS5003;74877;52.392;16.888;2023-12-14T05:25:11;8.437347624849263;8.437347624849263;1.6874695249698524
84648;PMS5003;74877;52.392;16.888;2023-12-14T05:35:10;16.886007752683362;11.820205426878355;3.3772015505366726
84648;PMS5003;74877;52.392;16.888;2023-12-14T05:40:10;22.711441534675114;17.664454526969532;7.5704805115583715
84648;PMS5003;74877;52.392;16.888;2023-12-14T05:45:10;11.782340475694403;11.782340475694403;4.20797874131943
84648;PMS5003;74877;52.392;16.888;2023-12-14T05:50:11;17.691550336648948;16.00664078077762;5.89718344554965
84648;PMS5003;74877;52.392;16.888;2023-12-14T05:55:10;19.2732182349491;7.541694091936604;3.3518640408607125
84648;PMS5003;74877;52.392;16.888;2023-12-14T06:00:10;11.729467288768578;11.729467288768578;2.5134572761646954
84648;PMS5003;74877;52.392;16.888;2023-12-14T06:05:10;20.92706162608409;13.393319440693817;5.859577255303545
84648;PMS5003;74877;52.392;16.888;2023-12-14T06:15:11;18.67563556625373;16.97785051477612;3.395570102955224
84648;PMS5003;74877;52.392;16.888;2023-12-14T06:25:10;24.557820181764832;19.476891868296246;5.080928313468585
84648;PMS5003;74877;52.392;16.888;2023-12-14T06:40:10;12.70023540176423;12.70023540176423;4.233411800588077
84648;PMS5003;74877;52.392;16.888;2023-12-14T06:45:10;20.3370310183338;12.710644386458625;4.236881462152875
84648;PMS5003;74877;52.392;16.888;2023-12-14T06:50:10;16.055088028380823;11.830064863017448;5.070027798436049
84648;PMS5003;74877;52.392;16.888;2023-12-14T06:55:10;16.972358062626295;16.972358062626295;4.243089515656574
84648;PMS5003;74877;52.392;16.888;2023-12-14T07:05:10;19.457664867209193;14.381752293154621;2.537956287027286
84648;PMS5003;74877;52.392;16.888;2023-12-14T07:10:10;18.614751242956952;14.384125960466736;3.3845002259921735
84648;PMS5003;74877;52.392;16.888;2023-12-14T07:15:11;20.30700135595304;20.30700135595304;4.230625282490217
84648;PMS5003;74877;52.392;16.888;2023-12-14T07:20:10;22.672401303341328;18.47380846938923;3.3588742671616783
84648;PMS5003;74877;52.392;16.888;2023-12-14T07:25:10;18.386453735763336;18.386453735763336;4.178739485400758
84648;PMS5003;74877;52.392;16.888;2023-12-14T07:30:11;18.477002489007713;15.95741124050666;8.398637495003506
84648;PMS5003;74877;52.392;16.888;2023-12-14T07:35:10;14.94807647455243;14.94807647455243;4.982692158184143
84648;PMS5003;74877;52.392;16.888;2023-12-14T07:40:10;20.90484991218696;20.90484991218696;10.870521954337221
84648;PMS5003;74877;52.392;16.888;2023-12-14T07:45:10;22.69586772904714;13.449403098694601;5.043526162010475
84648;PMS5003;74877;52.392;16.888;2023-12-14T07:50:10;16.779813389005835;13.423850711204668;4.194953347251459
